Pagina principale
METAR-TAF:

METAR-TAF

Aeroporti :

Aeroporto di Parma

Parma, Italia

latitudine: 44-49-17N, longitudine: 010-17-41E, altezza: 50 m

Osservazione

Il bollettino è stato emesso 58 minuti fa, alle 12:50 UTC
Vento 3 kt da nord/nord-ovest
Temperature 6°C
Umidità 93%
Pressione 1013 hPa
Visibilità: 3500 m
Nuvoloso ad un'altezza di 4000 ft

METAR: LIMP 171250Z 33003KT 3500 BKN040 06/05 Q1013

Ora: 14:48 (13:48 UTC)

Previsione

Il bollettino è stato emesso 2 ore e 48 minuti fa, alle 11:00 UTC
Previsione valida dal 17 alle 12 UTC al 18 alle 12 UTC
Vento 5 kt da direzioni variabili
Visibilità: 7000 m
Nuvoloso ad un'altezza di 4000 ft
Temporaneamente
dal 17 alle 12 UTC al 17 alle 21 UTC
pioviggine
Temporaneamente
dal 18 alle 00 UTC al 18 alle 06 UTC
Visibilità: 0700 m
Nuvoloso ad un'altezza di 500 ft
nebbia

TAF: LIMP 171100Z 1712/1812 VRB05KT 7000 BKN040 TEMPO 1712/1721 DZ TEMPO 1800/1806 0700 FG BKN005

Osservazioni e previsioni meteorologiche di più di 4000 aeroporti (messaggi METAR e TAF).

Le stazioni disponibili sono rappresentate dai dischi gialli e rossi sulla carta.

Puntare il mouse per vedere il nome della stazione.

Clicca sopra per visualizzare le osservazioni e previsioni meteorologiche.

Per cambiare la mappa : fare clic sui pulsanti verdi con una croce nera per ingrandire, il pulsante verde con un trattino per diminuire, o sulla freccia verde per le mappe adiacenti.


METAR-TAF: